Time;durP1;ratioP1;P1;durP2;ratioP2;P2;SDS_P1;SDS_P2;PMS_P1;PMS_P2;Temp;Humidity;BMP_temperature;BMP_pressure;BME280_temperature;BME280_humidity;BME280_pressure;Samples;Min_cycle;Max_cycle;Signal;HPM_P1;HPM_P2
2022/11/30 00:00:57;;;;;;;30.88;19.92;;;;;;;8.90;98.65;98410.50;4200914;28;20662;-84
2022/11/30 00:03:01;;;;;;;29.40;20.23;;;;;;;8.90;98.63;98405.31;4186770;28;20202;-84
2022/11/30 00:05:05;;;;;;;30.10;19.90;;;;;;;8.90;98.84;98405.31;4193783;28;20290;-84
2022/11/30 00:07:08;;;;;;;33.40;19.40;;;;;;;8.88;98.03;98400.19;4179505;28;20209;-84
2022/11/30 00:09:12;;;;;;;32.78;20.60;;;;;;;8.89;98.66;98395.84;4200026;28;21223;-84
2022/11/30 00:11:19;;;;;;;30.40;19.80;;;;;;;8.90;98.23;98394.91;4182267;28;20229;-84
2022/11/30 00:13:22;;;;;;;26.77;19.23;;;;;;;8.90;98.26;98390.56;4197006;28;20630;-84
2022/11/30 00:15:25;;;;;;;30.17;19.27;;;;;;;8.90;98.04;98395.75;4180593;28;20636;-84
2022/11/30 00:17:28;;;;;;;27.90;19.52;;;;;;;8.91;98.59;98400.00;4204825;28;20629;-83
2022/11/30 00:19:33;;;;;;;32.55;20.70;;;;;;;8.91;98.50;98409.59;4200295;28;20205;-84
2022/11/30 00:21:36;;;;;;;30.27;20.07;;;;;;;8.90;98.64;98406.16;4197298;28;20239;-84
2022/11/30 00:23:40;;;;;;;27.95;19.30;;;;;;;8.90;98.59;98405.31;4196098;28;20639;-84
2022/11/30 00:25:43;;;;;;;34.20;20.40;;;;;;;8.89;98.58;98399.28;4184796;28;20205;-84
2022/11/30 00:27:46;;;;;;;28.10;19.67;;;;;;;8.88;98.15;98394.97;4185691;28;20213;-84
2022/11/30 00:29:49;;;;;;;29.27;19.85;;;;;;;8.88;99.10;98396.75;4198350;28;20681;-84
2022/11/30 00:31:52;;;;;;;27.98;17.90;;;;;;;8.87;98.58;98393.34;4197675;28;20350;-84
2022/11/30 00:33:55;;;;;;;29.98;19.05;;;;;;;8.88;98.61;98394.16;4181292;28;20201;-85
2022/11/30 00:36:01;;;;;;;25.13;17.90;;;;;;;8.87;99.08;98392.47;4197496;28;20302;-84
2022/11/30 00:38:04;;;;;;;26.27;18.20;;;;;;;8.86;98.80;98393.41;4197869;28;20216;-84
2022/11/30 00:40:08;;;;;;;28.93;18.57;;;;;;;8.86;98.36;98388.22;4195992;28;20643;-84
2022/11/30 00:42:11;;;;;;;27.30;18.10;;;;;;;8.85;98.70;98389.13;4200745;28;20639;-84
2022/11/30 00:44:14;;;;;;;25.60;16.98;;;;;;;8.84;98.72;98390.03;4197020;28;21459;-84
2022/11/30 00:46:17;;;;;;;28.00;19.27;;;;;;;8.84;99.31;98393.50;4198542;28;20404;-84
2022/11/30 00:48:20;;;;;;;25.73;17.55;;;;;;;8.85;98.60;98396.94;4179453;28;20620;-84
2022/11/30 00:50:23;;;;;;;27.20;18.27;;;;;;;8.85;99.33;98396.94;4196013;28;20263;-84
2022/11/30 00:52:28;;;;;;;26.40;18.73;;;;;;;8.84;98.29;98401.31;4202931;28;20292;-84
2022/11/30 00:54:31;;;;;;;26.70;18.00;;;;;;;8.84;98.98;98387.44;4183376;28;20258;-84
2022/11/30 00:56:34;;;;;;;28.75;17.98;;;;;;;8.82;98.50;98391.91;4185410;28;20218;-84
2022/11/30 00:58:37;;;;;;;28.00;19.40;;;;;;;8.82;98.34;98394.50;4200806;28;20530;-84
2022/11/30 01:00:40;;;;;;;25.20;18.00;;;;;;;8.81;98.79;98387.63;4198678;28;20213;-84
2022/11/30 01:02:43;;;;;;;24.67;17.15;;;;;;;8.83;99.16;98391.00;4179744;28;21003;-84
2022/11/30 01:04:46;;;;;;;26.00;17.27;;;;;;;8.82;98.71;98391.91;4198922;28;20225;-84
2022/11/30 01:06:50;;;;;;;26.45;16.90;;;;;;;8.82;98.03;98402.31;4193747;28;20641;-84
2022/11/30 01:08:54;;;;;;;28.42;18.27;;;;;;;8.78;98.57;98401.66;4197496;28;20201;-84
2022/11/30 01:11:05;;;;;;;25.48;17.63;;;;;;;8.78;98.38;98406.00;4197254;28;20280;-84
2022/11/30 01:13:08;;;;;;;24.83;17.20;;;;;;;8.77;98.42;98399.97;4183164;28;20209;-84
2022/11/30 01:15:13;;;;;;;25.30;17.90;;;;;;;8.76;98.70;98398.28;4176434;28;20632;-84
2022/11/30 01:17:16;;;;;;;25.85;16.65;;;;;;;8.76;98.06;98398.28;4198732;28;20624;-84
2022/11/30 01:19:19;;;;;;;24.13;16.70;;;;;;;8.75;98.83;98396.63;4184348;28;20217;-84
2022/11/30 01:21:23;;;;;;;25.55;16.50;;;;;;;8.75;98.25;98404.41;4183940;28;20666;-85
2022/11/30 01:23:26;;;;;;;24.98;16.77;;;;;;;8.73;98.72;98401.03;4183589;28;20249;-84
2022/11/30 01:25:31;;;;;;;25.15;16.67;;;;;;;8.74;97.95;98407.09;4203780;28;20335;-84
2022/11/30 01:27:34;;;;;;;23.77;16.90;;;;;;;8.74;98.86;98404.50;4199044;28;20251;-84
2022/11/30 01:29:37;;;;;;;24.27;16.58;;;;;;;8.73;98.84;98405.41;4200062;28;21097;-83
2022/11/30 01:31:40;;;;;;;24.97;17.37;;;;;;;8.73;98.72;98408.03;4195572;28;20299;-84
2022/11/30 01:33:43;;;;;;;23.08;16.05;;;;;;;8.74;99.57;98404.50;4197821;28;20635;-84
2022/11/30 01:35:46;;;;;;;22.63;15.73;;;;;;;8.75;99.24;98411.34;4179868;28;21396;-84
2022/11/30 01:37:49;;;;;;;23.33;16.35;;;;;;;8.74;99.04;98414.91;4200064;28;20216;-84
2022/11/30 01:39:52;;;;;;;22.63;17.00;;;;;;;8.74;99.15;98409.72;4192857;28;20286;-84
2022/11/30 01:41:57;;;;;;;25.88;16.55;;;;;;;8.74;99.22;98420.94;4184441;28;20204;-84
2022/11/30 01:44:33;;;;;;;22.70;15.50;;;;;;;8.73;99.38;98408.03;4197186;28;20723;-84
2022/11/30 01:46:38;;;;;;;21.77;15.10;;;;;;;8.74;98.88;98426.13;4193317;28;20196;-84
2022/11/30 01:48:42;;;;;;;22.50;15.68;;;;;;;8.74;99.70;98420.09;4199992;28;20619;-84
2022/11/30 01:50:45;;;;;;;22.63;14.73;;;;;;;8.74;99.16;98426.13;4196722;28;20296;-84
2022/11/30 01:52:50;;;;;;;22.85;15.00;;;;;;;8.74;98.61;98428.72;4179928;28;20271;-84
2022/11/30 01:54:57;;;;;;;23.50;15.50;;;;;;;8.72;99.54;98424.53;4185567;28;20206;-84
2022/11/30 01:57:04;;;;;;;23.50;15.15;;;;;;;8.72;99.02;98424.53;4182953;28;20202;-84
2022/11/30 01:59:08;;;;;;;22.75;14.95;;;;;;;8.68;99.13;98420.44;4197191;28;20213;-84
2022/11/30 02:01:11;;;;;;;21.58;14.68;;;;;;;8.68;99.50;98418.66;4197131;28;20209;-84
2022/11/30 02:03:18;;;;;;;19.73;14.25;;;;;;;8.69;99.75;98416.91;4199409;28;20252;-84
2022/11/30 02:05:22;;;;;;;20.90;14.18;;;;;;;8.69;99.55;98416.91;4198932;28;20201;-84
2022/11/30 02:07:25;;;;;;;15.18;10.90;;;;;;;8.71;99.62;98420.28;4196881;28;20324;-83
2022/11/30 02:09:29;;;;;;;16.13;11.20;;;;;;;8.69;98.80;98411.69;4201022;28;20529;-84
2022/11/30 02:11:32;;;;;;;15.32;10.60;;;;;;;8.70;99.22;98419.41;4184515;28;20200;-84
2022/11/30 02:13:44;;;;;;;18.92;12.88;;;;;;;8.69;99.24;98419.50;4182940;28;20202;-84
2022/11/30 02:15:55;;;;;;;19.73;13.13;;;;;;;8.68;98.89;98417.84;4182219;28;20485;-84
2022/11/30 02:18:05;;;;;;;18.05;12.65;;;;;;;8.68;99.32;98420.44;4197433;28;20300;-84
2022/11/30 02:20:44;;;;;;;15.50;10.60;;;;;;;8.68;98.79;98416.06;4200732;28;20307;-84
2022/11/30 02:23:05;;;;;;;16.52;11.77;;;;;;;8.68;98.50;98421.28;4181524;28;20209;-84
2022/11/30 02:25:10;;;;;;;19.15;12.85;;;;;;;8.69;98.74;98422.09;4202074;28;20700;-84
2022/11/30 02:27:20;;;;;;;18.95;12.73;;;;;;;8.64;98.51;98426.72;4203020;28;20193;-83
2022/11/30 02:29:25;;;;;;;16.75;12.70;;;;;;;8.63;98.22;98423.28;4183965;28;20205;-84
2022/11/30 02:31:33;;;;;;;16.60;11.55;;;;;;;8.64;98.97;98426.72;4199227;28;20262;-84
2022/11/30 02:33:38;;;;;;;17.42;12.30;;;;;;;8.63;98.45;98420.69;4198235;28;20577;-83
2022/11/30 02:35:44;;;;;;;18.90;13.35;;;;;;;8.63;98.70;98423.28;4190760;28;20563;-84
2022/11/30 02:37:54;;;;;;;16.88;12.23;;;;;;;8.63;98.99;98419.84;4188311;28;20600;-83
2022/11/30 02:39:57;;;;;;;17.58;12.23;;;;;;;8.62;99.34;98420.78;4201380;28;20225;-84
2022/11/30 02:42:00;;;;;;;17.88;12.13;;;;;;;8.61;99.16;98425.13;4188199;28;20210;-84
2022/11/30 02:44:04;;;;;;;16.63;12.07;;;;;;;8.59;99.13;98419.19;4205707;28;20624;-84
2022/11/30 02:46:12;;;;;;;15.98;10.48;;;;;;;8.60;98.80;98417.41;4199176;28;20295;-84
2022/11/30 02:48:18;;;;;;;14.95;10.95;;;;;;;8.59;98.75;98421.78;4202927;28;20239;-83
2022/11/30 02:50:22;;;;;;;14.65;10.45;;;;;;;8.61;99.57;98424.28;4185470;28;20221;-83
2022/11/30 02:52:27;;;;;;;17.50;12.23;;;;;;;8.62;98.56;98424.22;4197093;28;20275;-84
2022/11/30 02:54:30;;;;;;;15.00;10.95;;;;;;;8.61;98.58;98419.09;4200301;28;20240;-84
2022/11/30 02:56:33;;;;;;;17.77;11.05;;;;;;;8.59;99.13;98426.97;4190055;28;20205;-84
2022/11/30 02:58:36;;;;;;;15.75;10.75;;;;;;;8.59;98.54;98416.59;4189256;28;20205;-84
2022/11/30 03:00:39;;;;;;;16.13;11.23;;;;;;;8.59;98.98;98416.59;4195255;28;20760;-84
2022/11/30 03:02:43;;;;;;;13.95;10.52;;;;;;;8.59;98.76;98420.94;4204837;28;20302;-84
2022/11/30 03:04:46;;;;;;;14.07;11.13;;;;;;;8.58;99.04;98414.06;4188683;28;20243;-83
2022/11/30 03:06:50;;;;;;;14.27;10.55;;;;;;;8.60;98.93;98414.81;4205622;28;20731;-83
2022/11/30 03:08:53;;;;;;;14.15;10.45;;;;;;;8.60;99.09;98425.22;4205009;28;20694;-83
2022/11/30 03:10:56;;;;;;;13.75;10.30;;;;;;;8.60;99.50;98433.88;4189744;28;20930;-83
2022/11/30 03:12:59;;;;;;;15.63;11.67;;;;;;;8.61;99.46;98430.31;4190545;28;20219;-84
2022/11/30 03:15:02;;;;;;;14.88;10.75;;;;;;;8.63;99.13;98427.63;4191053;28;21429;-84
2022/11/30 03:17:05;;;;;;;14.68;11.30;;;;;;;8.63;98.78;98425.91;4187042;28;20681;-84
2022/11/30 03:19:10;;;;;;;17.38;12.65;;;;;;;8.63;99.38;98427.63;4184727;28;20705;-84
2022/11/30 03:21:13;;;;;;;15.25;10.63;;;;;;;8.63;99.32;98431.09;4188734;28;20228;-83
2022/11/30 03:23:16;;;;;;;13.80;10.02;;;;;;;8.65;100.00;98433.63;4180286;28;20247;-84
2022/11/30 03:25:19;;;;;;;15.88;11.82;;;;;;;8.63;98.42;98433.69;4184191;28;20210;-83
2022/11/30 03:27:22;;;;;;;15.70;10.93;;;;;;;8.61;98.41;98426.91;4181332;28;20217;-83
2022/11/30 03:29:25;;;;;;;16.90;12.63;;;;;;;8.61;98.62;98435.53;4184611;28;20243;-83
2022/11/30 03:31:29;;;;;;;14.88;12.10;;;;;;;8.61;99.72;98435.53;4198317;28;20536;-83
2022/11/30 03:33:32;;;;;;;16.85;11.10;;;;;;;8.62;99.83;98433.78;4195008;28;20285;-83
2022/11/30 03:35:36;;;;;;;14.75;11.40;;;;;;;8.63;99.83;98435.44;4198604;28;20893;-83
2022/11/30 03:37:39;;;;;;;14.27;10.55;;;;;;;8.64;99.24;98444.91;4180526;28;20210;-84
2022/11/30 03:39:42;;;;;;;12.65;9.80;;;;;;;8.63;99.61;98438.03;4196098;28;20727;-84
2022/11/30 03:41:45;;;;;;;15.00;10.68;;;;;;;8.61;99.42;98438.13;4182760;28;20293;-84
2022/11/30 03:43:48;;;;;;;16.55;11.52;;;;;;;8.60;98.97;98438.19;4200143;28;20661;-83
2022/11/30 03:45:51;;;;;;;14.32;10.55;;;;;;;8.61;99.40;98437.28;4193222;28;20248;-84
2022/11/30 03:47:54;;;;;;;13.55;9.68;;;;;;;8.61;99.61;98438.13;4183360;28;20212;-83
2022/11/30 03:49:57;;;;;;;13.50;10.23;;;;;;;8.62;99.80;98444.19;4199026;28;20211;-83
2022/11/30 03:52:01;;;;;;;13.90;9.95;;;;;;;8.63;99.82;98441.50;4186050;28;20333;-83
2022/11/30 03:54:05;;;;;;;12.77;8.88;;;;;;;8.64;98.87;98442.31;4196903;28;20631;-84
2022/11/30 03:56:09;;;;;;;12.18;9.10;;;;;;;8.64;100.00;98444.91;4198136;28;20209;-84
2022/11/30 03:58:12;;;;;;;11.65;9.27;;;;;;;8.64;99.37;98437.94;4197429;28;20202;-83
2022/11/30 04:00:16;;;;;;;14.43;10.32;;;;;;;8.65;99.84;98444.84;4193265;28;20627;-84
2022/11/30 04:02:19;;;;;;;16.75;11.18;;;;;;;8.64;99.97;98443.16;4185189;28;20233;-84
2022/11/30 04:04:22;;;;;;;15.25;9.88;;;;;;;8.65;99.85;98442.25;4185243;28;20294;-84
2022/11/30 04:06:25;;;;;;;12.60;9.13;;;;;;;8.66;100.00;98448.25;4197901;28;20292;-83
2022/11/30 04:08:30;;;;;;;12.43;8.80;;;;;;;8.66;99.33;98446.53;4187337;28;20739;-83
2022/11/30 04:10:33;;;;;;;15.35;10.48;;;;;;;8.66;99.00;98443.94;4183945;28;20292;-84
2022/11/30 04:12:36;;;;;;;13.95;9.73;;;;;;;8.67;100.00;98439.56;4183451;28;20645;-84
2022/11/30 04:14:39;;;;;;;18.52;9.82;;;;;;;8.66;99.55;98443.94;4197950;28;20240;-84
2022/11/30 04:16:42;;;;;;;14.93;10.48;;;;;;;8.67;99.46;98442.16;4186913;28;20243;-84
2022/11/30 04:18:45;;;;;;;11.10;9.15;;;;;;;8.68;100.00;98438.66;4197385;28;20732;-84
2022/11/30 04:20:50;;;;;;;13.13;8.45;;;;;;;8.68;99.68;98451.66;4196003;28;20822;-84
2022/11/30 04:22:53;;;;;;;13.20;9.52;;;;;;;8.70;99.34;98444.59;4217032;28;20207;-84
2022/11/30 04:24:57;;;;;;;11.50;9.10;;;;;;;8.70;99.16;98439.38;4187799;28;20598;-84
2022/11/30 04:27:00;;;;;;;15.27;9.35;;;;;;;8.68;99.60;98436.88;4187777;28;20924;-84
2022/11/30 04:29:04;;;;;;;13.80;9.18;;;;;;;8.67;99.49;98442.97;4199137;28;20807;-84
2022/11/30 04:31:07;;;;;;;15.15;9.30;;;;;;;8.69;99.82;98448.09;4194914;28;20253;-84
2022/11/30 04:33:13;;;;;;;13.60;9.82;;;;;;;8.69;100.00;98446.34;4197508;28;20198;-84
2022/11/30 04:35:16;;;;;;;12.95;9.43;;;;;;;8.69;99.99;98448.97;4198402;28;20205;-84
2022/11/30 04:37:19;;;;;;;12.50;9.40;;;;;;;8.67;99.56;98450.78;4205742;28;20209;-84
2022/11/30 04:39:22;;;;;;;12.52;8.73;;;;;;;8.68;98.93;98451.66;4186397;28;20681;-84
2022/11/30 04:41:26;;;;;;;11.20;8.82;;;;;;;8.68;99.38;98449.03;4182793;28;20214;-84
2022/11/30 04:43:29;;;;;;;16.02;9.98;;;;;;;8.66;99.29;98446.53;4203349;28;20212;-85
2022/11/30 04:45:32;;;;;;;15.07;9.20;;;;;;;8.67;99.35;98449.94;4199069;28;20278;-83
2022/11/30 04:47:37;;;;;;;12.10;9.55;;;;;;;8.66;99.77;98454.31;4198998;28;20197;-83
2022/11/30 04:49:40;;;;;;;12.43;9.30;;;;;;;8.68;99.29;98456.84;4198123;28;20193;-84
2022/11/30 04:51:43;;;;;;;13.07;9.50;;;;;;;8.67;99.58;98461.19;4201949;28;20546;-83
2022/11/30 04:53:46;;;;;;;13.27;9.77;;;;;;;8.68;100.00;98451.66;4197859;28;20397;-83
2022/11/30 04:55:49;;;;;;;11.93;8.93;;;;;;;8.68;99.81;98455.06;4198553;28;20266;-83
2022/11/30 04:57:54;;;;;;;12.82;9.00;;;;;;;8.70;99.46;98455.81;4181909;28;20209;-84
2022/11/30 04:59:56;;;;;;;11.98;8.88;;;;;;;8.71;100.00;98457.50;4188677;28;20674;-83
2022/11/30 05:01:59;;;;;;;11.25;8.88;;;;;;;8.72;99.88;98451.38;4196336;28;20233;-84
2022/11/30 05:04:03;;;;;;;12.87;9.40;;;;;;;8.73;99.56;98453.03;4200672;28;20316;-84
2022/11/30 05:06:06;;;;;;;13.80;9.32;;;;;;;8.72;99.95;98453.13;4197841;28;20673;-83
2022/11/30 05:08:09;;;;;;;12.55;8.98;;;;;;;8.71;100.00;98456.69;4204775;28;20228;-83
2022/11/30 05:10:12;;;;;;;12.63;8.73;;;;;;;8.72;100.00;98455.72;4184029;28;20201;-83
2022/11/30 05:12:15;;;;;;;13.02;8.70;;;;;;;8.71;100.00;98454.06;4183731;28;20228;-83
2022/11/30 05:14:20;;;;;;;13.48;8.63;;;;;;;8.71;100.00;98457.50;4195734;28;20205;-83
2022/11/30 05:16:23;;;;;;;13.60;8.95;;;;;;;8.71;99.90;98464.47;4198077;28;20218;-83
2022/11/30 05:18:26;;;;;;;12.02;9.18;;;;;;;8.71;100.00;98456.69;4199444;28;20201;-83
2022/11/30 05:20:29;;;;;;;14.68;9.23;;;;;;;8.72;99.92;98463.53;4197797;28;20228;-84
2022/11/30 05:22:33;;;;;;;12.05;8.90;;;;;;;8.74;99.48;98462.53;4196630;28;20204;-83
2022/11/30 05:24:36;;;;;;;11.55;8.55;;;;;;;8.75;100.00;98463.38;4200118;28;20205;-83
2022/11/30 05:26:39;;;;;;;12.80;8.65;;;;;;;8.77;99.81;98471.94;4201200;28;20680;-83
2022/11/30 05:28:42;;;;;;;11.93;8.80;;;;;;;8.75;100.00;98465.97;4196654;28;20565;-83
2022/11/30 05:30:47;;;;;;;13.63;9.05;;;;;;;8.73;100.00;98467.81;4186810;28;20202;-83
2022/11/30 05:32:52;;;;;;;11.52;8.80;;;;;;;8.72;99.82;98456.59;4198032;28;20276;-83
2022/11/30 05:34:55;;;;;;;12.25;8.90;;;;;;;8.72;100.00;98468.72;4199688;28;20335;-83
2022/11/30 05:37:00;;;;;;;12.85;9.80;;;;;;;8.72;99.83;98468.72;4183431;28;20233;-83
2022/11/30 05:39:03;;;;;;;11.85;8.73;;;;;;;8.70;98.73;98461.00;4194125;28;20205;-83
2022/11/30 05:41:06;;;;;;;13.32;10.55;;;;;;;8.69;99.43;98469.75;4186860;28;20232;-83
2022/11/30 05:43:09;;;;;;;17.85;10.95;;;;;;;8.71;99.12;98462.69;4197469;28;20287;-83
2022/11/30 05:45:12;;;;;;;14.30;10.23;;;;;;;8.71;98.64;98467.91;4186695;28;20589;-82
2022/11/30 05:47:17;;;;;;;14.38;9.27;;;;;;;8.72;99.40;98460.94;4198583;28;20666;-83
2022/11/30 05:49:20;;;;;;;16.10;10.73;;;;;;;8.72;99.13;98466.13;4200272;28;20254;-84
2022/11/30 05:51:23;;;;;;;16.83;10.48;;;;;;;8.72;99.59;98464.38;4194899;28;20734;-83
2022/11/30 05:53:26;;;;;;;14.48;10.30;;;;;;;8.72;98.54;98464.38;4181001;28;20261;-83
2022/11/30 05:55:31;;;;;;;13.70;10.27;;;;;;;8.68;98.75;98467.25;4199069;28;20212;-82
2022/11/30 05:57:35;;;;;;;13.68;9.77;;;;;;;8.61;98.15;98466.72;4192761;28;20208;-83
2022/11/30 05:59:38;;;;;;;14.15;9.75;;;;;;;8.60;99.59;98470.25;4197348;28;20283;-83
2022/11/30 06:01:42;;;;;;;13.07;9.43;;;;;;;8.57;99.47;98475.63;4198916;28;20298;-83
2022/11/30 06:03:46;;;;;;;13.63;9.23;;;;;;;8.58;98.53;98476.44;4191155;28;20228;-82
2022/11/30 06:05:51;;;;;;;15.35;9.65;;;;;;;8.59;99.67;98472.94;4201040;28;20209;-83
2022/11/30 06:07:54;;;;;;;15.60;10.95;;;;;;;8.60;100.00;98470.25;4188544;28;20237;-83
2022/11/30 06:09:57;;;;;;;18.48;11.27;;;;;;;8.62;99.61;98470.19;4185855;28;20205;-83
2022/11/30 06:12:00;;;;;;;17.20;10.73;;;;;;;8.62;100.00;98471.00;4187173;28;20229;-83
2022/11/30 06:14:04;;;;;;;16.75;10.38;;;;;;;8.61;99.30;98471.91;4188200;28;20683;-83
2022/11/30 06:16:08;;;;;;;14.63;10.40;;;;;;;8.62;98.63;98472.78;4200090;28;20715;-84
2022/11/30 06:18:12;;;;;;;12.55;8.32;;;;;;;8.61;99.34;98476.28;4202491;28;20296;-84
2022/11/30 06:20:16;;;;;;;13.35;9.55;;;;;;;8.62;98.84;98472.78;4183655;28;20210;-83
2022/11/30 06:22:19;;;;;;;12.80;9.07;;;;;;;8.63;98.93;98475.28;4201239;28;20222;-83
2022/11/30 06:24:22;;;;;;;13.30;9.70;;;;;;;8.64;99.40;98479.53;4195423;28;20205;-83
2022/11/30 06:26:25;;;;;;;13.38;10.23;;;;;;;8.65;99.93;98478.63;4180460;28;20213;-83
2022/11/30 06:28:28;;;;;;;14.85;9.40;;;;;;;8.65;99.24;98476.03;4180539;28;20256;-83
2022/11/30 06:30:31;;;;;;;15.38;10.27;;;;;;;8.67;99.40;98475.94;4214276;28;20215;-83
2022/11/30 06:32:34;;;;;;;17.40;11.95;;;;;;;8.67;99.56;98470.75;4205724;28;20255;-83
2022/11/30 06:34:37;;;;;;;18.80;12.67;;;;;;;8.69;98.78;98485.34;4196310;28;20287;-83
2022/11/30 06:36:41;;;;;;;20.50;13.98;;;;;;;8.68;99.19;98478.47;4202510;28;21138;-83
2022/11/30 06:38:44;;;;;;;17.55;11.48;;;;;;;8.68;99.73;98475.03;4181776;28;20206;-84
2022/11/30 06:40:48;;;;;;;18.63;12.13;;;;;;;8.67;98.89;98473.34;4197776;28;20227;-83
2022/11/30 06:42:51;;;;;;;17.55;13.25;;;;;;;8.67;99.44;98476.78;4198616;28;20233;-83
2022/11/30 06:44:54;;;;;;;17.90;12.20;;;;;;;8.67;99.27;98473.34;4203297;28;20285;-83
2022/11/30 06:46:56;;;;;;;15.90;10.93;;;;;;;8.68;98.50;98480.25;4198823;28;20296;-83
2022/11/30 06:48:59;;;;;;;16.70;11.00;;;;;;;8.69;99.26;98485.34;4196987;28;20230;-83
2022/11/30 06:51:05;;;;;;;15.65;12.18;;;;;;;8.68;98.77;98481.06;4186822;28;20321;-82
2022/11/30 06:53:10;;;;;;;17.67;11.27;;;;;;;8.70;98.93;98486.19;4185915;28;20202;-81
2022/11/30 06:55:13;;;;;;;18.30;10.95;;;;;;;8.70;99.11;98484.41;4196002;28;20319;-83
2022/11/30 06:57:16;;;;;;;24.13;17.33;;;;;;;8.67;98.49;98478.56;4198646;28;20266;-83
2022/11/30 06:59:19;;;;;;;22.08;11.93;;;;;;;8.64;98.57;98486.50;4201356;28;21017;-85
2022/11/30 07:01:22;;;;;;;17.05;11.90;;;;;;;8.64;97.77;98486.50;4183326;28;20206;-83
2022/11/30 07:03:25;;;;;;;20.60;13.23;;;;;;;8.63;97.46;98493.50;4183940;28;20230;-83
2022/11/30 07:05:28;;;;;;;22.40;13.93;;;;;;;8.62;98.50;98486.59;4205238;28;20212;-83
2022/11/30 07:07:31;;;;;;;21.33;12.73;;;;;;;8.63;98.29;98490.88;4200568;28;20667;-83
2022/11/30 07:09:36;;;;;;;23.65;15.40;;;;;;;8.63;97.79;98490.88;4190104;28;20279;-84
2022/11/30 07:11:39;;;;;;;28.52;18.35;;;;;;;8.64;96.48;98504.72;4199049;28;20814;-83
2022/11/30 07:13:42;;;;;;;32.15;21.70;;;;;;;8.60;96.43;98487.59;4198372;28;20298;-84
2022/11/30 07:15:45;;;;;;;29.10;20.50;;;;;;;8.57;96.80;98496.41;4185534;28;20231;-83
2022/11/30 07:17:48;;;;;;;28.67;19.20;;;;;;;8.56;97.05;98496.50;4198914;28;20242;-83
2022/11/30 07:19:51;;;;;;;24.95;16.25;;;;;;;8.57;96.59;98493.81;4204353;28;20224;-83
2022/11/30 07:21:54;;;;;;;24.13;16.10;;;;;;;8.59;97.42;98491.13;4183461;28;20349;-83
2022/11/30 07:26:19;;;;;;;23.88;14.95;;;;;;;8.59;97.13;98488.53;4198300;28;20255;-84
2022/11/30 07:28:22;;;;;;;25.40;15.90;;;;;;;8.59;96.61;98484.16;4199031;28;20209;-84
2022/11/30 07:30:25;;;;;;;26.17;15.95;;;;;;;8.62;96.86;98489.19;4181832;28;20591;-83
2022/11/30 07:32:29;;;;;;;24.13;15.52;;;;;;;8.65;97.10;98490.81;4201187;28;20212;-84
2022/11/30 07:34:32;;;;;;;24.40;16.58;;;;;;;8.70;97.47;98492.22;4189407;28;20247;-84
2022/11/30 07:36:36;;;;;;;27.30;18.50;;;;;;;8.76;97.22;98496.25;4188162;28;20205;-83
2022/11/30 07:38:39;;;;;;;25.70;16.85;;;;;;;8.83;96.54;98495.00;4202192;28;20235;-83
2022/11/30 07:40:42;;;;;;;29.77;19.80;;;;;;;8.87;95.95;98499.09;4199779;28;20197;-83
2022/11/30 07:42:47;;;;;;;27.70;18.77;;;;;;;8.91;95.72;98493.63;4188858;28;20226;-83
2022/11/30 07:44:51;;;;;;;26.13;16.55;;;;;;;8.98;95.87;98495.81;4213225;28;20219;-83
2022/11/30 07:47:00;;;;;;;28.10;17.77;;;;;;;9.03;95.25;98495.56;4200110;28;20216;-83
2022/11/30 07:49:04;;;;;;;25.33;16.17;;;;;;;9.06;95.33;98503.19;4201767;28;20202;-84
2022/11/30 07:51:09;;;;;;;25.58;16.90;;;;;;;9.02;93.87;98505.13;4192245;28;20205;-83
2022/11/30 07:53:13;;;;;;;27.40;17.92;;;;;;;9.03;94.37;98500.75;4200396;28;20618;-83
2022/11/30 07:55:16;;;;;;;26.42;16.60;;;;;;;9.04;93.72;98502.44;4199508;28;20329;-83
2022/11/30 07:57:19;;;;;;;26.60;17.00;;;;;;;9.00;93.65;98506.97;4182059;28;20244;-83
2022/11/30 07:59:24;;;;;;;26.42;16.65;;;;;;;8.99;94.06;98510.50;4195851;28;20205;-83
2022/11/30 08:01:28;;;;;;;25.10;16.65;;;;;;;9.02;94.44;98512.94;4196428;28;20274;-83
2022/11/30 08:03:32;;;;;;;26.05;16.80;;;;;;;9.03;94.08;98516.38;4184659;28;20309;-83
2022/11/30 08:05:39;;;;;;;28.00;15.98;;;;;;;8.99;93.79;98507.91;4202798;28;20208;-83
2022/11/30 08:07:44;;;;;;;26.77;16.20;;;;;;;9.01;94.15;98519.06;4199306;28;20312;-84
2022/11/30 08:09:47;;;;;;;25.40;16.85;;;;;;;9.02;93.51;98525.09;4178375;28;20206;-84
2022/11/30 08:11:51;;;;;;;24.67;16.38;;;;;;;9.03;93.60;98519.81;4192928;28;20209;-83
2022/11/30 08:13:54;;;;;;;38.03;22.33;;;;;;;9.07;93.63;98517.91;4177714;28;20209;-83
2022/11/30 08:16:02;;;;;;;33.85;20.95;;;;;;;9.06;92.87;98521.41;4198622;28;20638;-82
2022/11/30 08:18:06;;;;;;;32.42;18.85;;;;;;;9.09;93.60;98524.66;4181284;28;20251;-83
2022/11/30 08:20:10;;;;;;;26.90;17.27;;;;;;;9.10;93.16;98526.34;4203391;28;20262;-83
2022/11/30 08:22:13;;;;;;;29.13;17.42;;;;;;;9.10;93.58;98523.75;4196964;28;20212;-83
2022/11/30 08:24:16;;;;;;;27.30;17.90;;;;;;;9.10;93.69;98521.16;4181736;28;20340;-83
2022/11/30 08:26:21;;;;;;;30.10;17.52;;;;;;;9.03;93.15;98519.81;4197065;28;20221;-83
2022/11/30 08:28:24;;;;;;;37.90;22.05;;;;;;;8.96;93.27;98523.69;4201995;28;20563;-84
2022/11/30 08:30:28;;;;;;;35.35;20.42;;;;;;;8.93;92.25;98526.44;4198041;28;20240;-83
2022/11/30 08:32:36;;;;;;;54.50;27.83;;;;;;;8.94;92.71;98522.09;4195096;28;20607;-84
2022/11/30 08:34:41;;;;;;;30.45;18.42;;;;;;;8.91;93.20;98531.81;4182524;28;20662;-83
2022/11/30 08:36:44;;;;;;;27.77;18.25;;;;;;;8.89;93.06;98528.47;4198927;28;20260;-83
2022/11/30 08:38:53;;;;;;;32.28;18.23;;;;;;;8.90;93.55;98530.13;4195959;28;20228;-84
2022/11/30 08:40:57;;;;;;;27.65;16.63;;;;;;;8.92;93.50;98529.13;4193883;28;20296;-84
2022/11/30 08:43:00;;;;;;;26.45;17.50;;;;;;;8.94;93.88;98524.69;4181420;28;20224;-84
2022/11/30 08:45:03;;;;;;;26.60;16.58;;;;;;;8.96;93.06;98530.66;4197843;28;20209;-84
2022/11/30 08:47:06;;;;;;;26.52;16.25;;;;;;;9.01;94.61;98532.06;4196719;28;20865;-83
2022/11/30 08:49:13;;;;;;;27.70;17.70;;;;;;;9.03;93.30;98530.22;4200427;28;20257;-84
2022/11/30 08:51:26;;;;;;;32.53;19.33;;;;;;;9.06;93.47;98531.81;4202509;28;20694;-83
2022/11/30 08:53:29;;;;;;;29.58;18.60;;;;;;;9.08;93.40;98537.75;4199848;28;20197;-84
2022/11/30 08:55:32;;;;;;;28.45;18.00;;;;;;;9.10;93.34;98535.94;4196347;28;20299;-84
2022/11/30 08:57:35;;;;;;;26.17;16.77;;;;;;;9.10;92.63;98534.16;4198209;28;20208;-84
2022/11/30 08:59:38;;;;;;;27.08;17.25;;;;;;;9.07;92.40;98542.13;4199664;28;20256;-83
2022/11/30 09:01:41;;;;;;;27.83;16.95;;;;;;;9.04;92.79;98539.69;4201119;28;20231;-84
2022/11/30 09:03:45;;;;;;;25.92;17.00;;;;;;;9.05;92.90;98540.53;4200329;28;20329;-84
2022/11/30 09:05:50;;;;;;;27.58;16.95;;;;;;;9.02;92.92;98551.09;4182767;28;20205;-83
2022/11/30 09:07:53;;;;;;;28.52;17.60;;;;;;;9.04;92.55;98550.09;4196821;28;20749;-84
2022/11/30 09:09:56;;;;;;;29.90;18.15;;;;;;;9.04;92.90;98555.31;4195719;28;20200;-84
2022/11/30 09:11:59;;;;;;;27.02;17.48;;;;;;;9.07;93.09;98555.16;4190014;28;20832;-83
2022/11/30 09:14:04;;;;;;;27.70;17.10;;;;;;;9.09;93.38;98555.06;4179579;28;20198;-84
2022/11/30 09:16:07;;;;;;;27.30;17.88;;;;;;;9.05;92.80;98559.59;4183103;28;20619;-84
2022/11/30 09:18:11;;;;;;;26.73;16.42;;;;;;;9.04;92.95;98554.47;4199238;28;20213;-84
2022/11/30 09:20:15;;;;;;;29.73;19.10;;;;;;;9.03;93.08;98560.59;4197948;28;20239;-83
2022/11/30 09:22:19;;;;;;;27.48;17.58;;;;;;;9.02;92.95;98561.50;4198945;28;21053;-84
2022/11/30 09:24:22;;;;;;;27.40;17.10;;;;;;;8.99;92.80;98554.72;4182530;28;20227;-83
2022/11/30 09:26:26;;;;;;;28.60;17.90;;;;;;;8.96;92.71;98561.88;4196867;28;20746;-84
2022/11/30 09:28:29;;;;;;;25.02;16.95;;;;;;;8.98;92.79;98555.66;4196733;28;20200;-84
2022/11/30 09:30:33;;;;;;;34.85;21.15;;;;;;;8.98;93.07;98555.66;4180925;28;20218;-84
2022/11/30 09:32:36;;;;;;;26.42;17.75;;;;;;;8.99;93.08;98551.28;4199197;28;20209;-84
2022/11/30 09:34:39;;;;;;;25.58;16.23;;;;;;;8.95;91.91;98553.22;4198484;28;20215;-83
2022/11/30 09:36:42;;;;;;;26.73;17.38;;;;;;;8.92;92.78;98547.34;4202963;28;20250;-83
2022/11/30 09:38:46;;;;;;;47.27;25.00;;;;;;;8.93;92.34;98552.47;4187743;28;20632;-83
2022/11/30 09:40:54;;;;;;;37.33;23.40;;;;;;;8.97;92.82;98553.13;4195730;28;20634;-84